createdAt,value
2023-04-02T00:04:22.277Z,96035.31
2023-04-02T00:08:29.080Z,96041.16
2023-04-02T00:12:29.644Z,96036.94
2023-04-02T00:16:30.897Z,96051.53
2023-04-02T00:20:41.143Z,96050.19
2023-04-02T00:24:43.093Z,96049.72
2023-04-02T00:28:43.564Z,96048.34
2023-04-02T00:32:45.128Z,96059.81
2023-04-02T00:36:50.264Z,96063.75
2023-04-02T00:40:51.461Z,96061.91
2023-04-02T00:44:54.921Z,96067.78
2023-04-02T00:49:03.121Z,96059.78
2023-04-02T00:53:16.267Z,96064.59
2023-04-02T00:57:23.579Z,96060.84
2023-04-02T01:01:28.671Z,96070.72
2023-04-02T01:05:29.355Z,96069.38
2023-04-02T01:09:57.461Z,96079.47
2023-04-02T01:14:10.043Z,96076.81
2023-04-02T01:18:37.022Z,96082.66
2023-04-02T01:22:50.272Z,96084.81
2023-04-02T01:26:58.850Z,96080.81
2023-04-02T01:31:06.618Z,96081.34
2023-04-02T01:35:09.169Z,96086.13
2023-04-02T01:39:23.492Z,96087.72
2023-04-02T01:43:37.153Z,96088.53
2023-04-02T01:47:42.670Z,96098.34
2023-04-02T01:51:46.705Z,96097.81
2023-04-02T01:55:53.389Z,96107.16
2023-04-02T01:59:55.028Z,96106.88
2023-04-02T02:03:58.651Z,96106.09
2023-04-02T02:08:01.782Z,96110.31
2023-04-02T02:12:04.714Z,96114.84
2023-04-02T02:16:10.180Z,96109.81
2023-04-02T02:20:16.261Z,96119.91
2023-04-02T02:24:24.622Z,96119.38
2023-04-02T02:28:30.655Z,96121.50
2023-04-02T02:32:34.411Z,96135.31
2023-04-02T02:36:49.342Z,96128.16
2023-04-02T02:40:56.216Z,96131.59
2023-04-02T02:45:01.586Z,96131.63
2023-04-02T02:49:07.401Z,96139.59
2023-04-02T02:53:23.048Z,96147.06
2023-04-02T02:57:31.181Z,96151.84
2023-04-02T03:01:34.139Z,96150.22
2023-04-02T03:05:41.076Z,96157.44
2023-04-02T03:10:04.468Z,96160.88
2023-04-02T03:14:23.219Z,96170.47
2023-04-02T03:18:43.239Z,96168.06
2023-04-02T03:22:54.063Z,96181.88
2023-04-02T03:27:06.210Z,96153.16
2023-04-02T03:31:14.483Z,96191.25
2023-04-02T03:35:28.386Z,96188.53
2023-04-02T03:39:37.503Z,96194.97
2023-04-02T03:43:48.525Z,96186.44
2023-04-02T03:47:58.644Z,96199.50
2023-04-02T03:52:07.417Z,96196.78
2023-04-02T03:56:10.494Z,96200.25
2023-04-02T04:00:24.050Z,96206.13
2023-04-02T04:04:33.781Z,96206.66
2023-04-02T04:08:42.981Z,96211.97
2023-04-02T04:12:49.289Z,96215.69
2023-04-02T04:17:09.623Z,96217.31
2023-04-02T04:21:31.273Z,96220.50
2023-04-02T04:25:42.572Z,96228.50
2023-04-02T04:29:59.628Z,96243.34
2023-04-02T04:34:10.670Z,96241.41
2023-04-02T04:38:18.203Z,96242.78
2023-04-02T04:42:25.800Z,96253.50
2023-04-02T04:46:36.965Z,96259.31
2023-04-02T04:50:50.922Z,96259.91
2023-04-02T04:54:52.023Z,96273.72
2023-04-02T04:59:04.849Z,96275.25
2023-04-02T05:03:20.845Z,96279.56
2023-04-02T05:07:30.677Z,96281.41
2023-04-02T05:11:40.097Z,96284.66
2023-04-02T05:15:51.371Z,96285.19
2023-04-02T05:20:02.339Z,96282.81
2023-04-02T05:24:45.281Z,96307.31
2023-04-02T05:28:54.578Z,96315.84
2023-04-02T05:33:05.314Z,96316.38
2023-04-02T05:37:07.266Z,96324.88
2023-04-02T05:41:27.172Z,96334.97
2023-04-02T05:45:39.254Z,96333.91
2023-04-02T05:49:51.678Z,96336.59
2023-04-02T05:53:58.846Z,96340.63
2023-04-02T05:58:33.993Z,96342.47
2023-04-02T06:02:39.942Z,96350.19
2023-04-02T06:07:00.930Z,96356.88
2023-04-02T06:11:11.693Z,96364.81
2023-04-02T06:15:21.757Z,96362.16
2023-04-02T06:19:33.774Z,96369.59
2023-04-02T06:23:43.016Z,96376.53
2023-04-02T06:27:48.502Z,96379.25
2023-04-02T06:32:00.629Z,96386.06
2023-04-02T06:36:04.605Z,96387.09
2023-04-02T06:40:29.161Z,96401.06
2023-04-02T06:44:36.995Z,96407.44
2023-04-02T06:49:14.942Z,96412.75
2023-04-02T06:53:26.685Z,96423.97
2023-04-02T06:57:28.872Z,96429.78
2023-04-02T07:01:35.126Z,96433.50
2023-04-02T07:05:40.423Z,96398.91
2023-04-02T07:09:42.637Z,96446.34
2023-04-02T07:13:45.574Z,96441.63
2023-04-02T07:17:49.105Z,96445.00
2023-04-02T07:21:52.858Z,96453.28
2023-04-02T07:25:57.796Z,96462.88
2023-04-02T07:29:58.382Z,96470.63
2023-04-02T07:34:01.890Z,96480.50
2023-04-02T07:38:04.835Z,96495.22
2023-04-02T07:42:05.780Z,96496.66
2023-04-02T07:46:07.278Z,96505.56
2023-04-02T07:50:09.709Z,96520.91
2023-04-02T07:54:13.318Z,96522.66
2023-04-02T07:58:14.073Z,96527.84
2023-04-02T08:02:23.427Z,96538.53
2023-04-02T08:06:24.570Z,96550.31
2023-04-02T08:10:27.926Z,96548.25
2023-04-02T08:14:28.630Z,96555.84
2023-04-02T08:18:29.371Z,96562.88
2023-04-02T08:22:30.243Z,96580.72
2023-04-02T08:26:33.227Z,96583.03
2023-04-02T08:30:33.854Z,96596.03
2023-04-02T08:34:34.391Z,96599.69
2023-04-02T08:38:34.941Z,96619.75
2023-04-02T08:42:47.097Z,96617.41
2023-04-02T08:46:52.881Z,96629.34
2023-04-02T08:50:54.533Z,96629.69
2023-04-02T08:54:56.493Z,96630.25
2023-04-02T08:59:05.053Z,96645.50
2023-04-02T09:03:13.635Z,96649.66
2023-04-02T09:07:18.671Z,96649.44
2023-04-02T09:11:30.538Z,96658.13
2023-04-02T09:15:38.396Z,96670.16
2023-04-02T09:19:44.754Z,96679.19
2023-04-02T09:23:45.647Z,96687.34
2023-04-02T09:27:51.085Z,96692.88
2023-04-02T09:32:08.427Z,96698.81
2023-04-02T09:36:20.250Z,96708.47
2023-04-02T09:40:28.587Z,96712.31
2023-04-02T09:44:32.941Z,96727.94
2023-04-02T09:48:39.553Z,96729.00
2023-04-02T09:52:40.564Z,96742.44
2023-04-02T09:57:01.228Z,96744.25
2023-04-02T10:01:02.313Z,96758.47
2023-04-02T10:05:08.145Z,96759.03
2023-04-02T10:09:32.586Z,96755.38
2023-04-02T10:13:42.464Z,96758.97
2023-04-02T10:17:43.858Z,96780.16
2023-04-02T10:21:49.298Z,96776.63
2023-04-02T10:26:04.663Z,96781.78
2023-04-02T10:30:22.190Z,96796.94
2023-04-02T10:34:31.959Z,96792.81
2023-04-02T10:38:51.691Z,96798.84
2023-04-02T10:43:12.687Z,96807.22
2023-04-02T10:47:32.903Z,96809.16
2023-04-02T10:51:44.230Z,96817.94
2023-04-02T10:55:55.633Z,96838.28
2023-04-02T11:00:06.991Z,96837.06
2023-04-02T11:04:20.236Z,96853.03
2023-04-02T11:08:26.905Z,96853.81
2023-04-02T11:12:46.235Z,96854.09
2023-04-02T11:16:47.439Z,96858.66
2023-04-02T11:21:07.966Z,96873.03
2023-04-02T11:25:26.284Z,96876.13
2023-04-02T11:29:35.933Z,96886.34
2023-04-02T11:33:47.383Z,96888.97
2023-04-02T11:37:53.896Z,96895.84
2023-04-02T11:42:32.159Z,96896.91
2023-04-02T11:47:18.990Z,96912.44
2023-04-02T11:51:59.388Z,96907.84
2023-04-02T11:56:20.312Z,96920.47
2023-04-02T12:01:12.163Z,96921.59
2023-04-02T12:05:29.146Z,96930.53
2023-04-02T12:09:32.382Z,96943.94
2023-04-02T12:13:58.798Z,96955.19
2023-04-02T12:18:14.500Z,96937.47
2023-04-02T12:22:25.315Z,96952.31
2023-04-02T12:26:42.750Z,96953.44
2023-04-02T12:30:49.101Z,96931.00
2023-04-02T12:34:50.169Z,96970.78
2023-04-02T12:38:57.325Z,96970.63
2023-04-02T12:42:58.334Z,96985.41
2023-04-02T12:47:01.271Z,96979.44
2023-04-02T12:51:04.077Z,96980.34
2023-04-02T12:55:10.005Z,96997.38
2023-04-02T12:59:36.268Z,97014.91
2023-04-02T13:03:36.836Z,97015.78
2023-04-02T13:07:37.688Z,97001.78
2023-04-02T13:11:43.586Z,97018.25
2023-04-02T13:15:44.652Z,97021.81
2023-04-02T13:19:45.663Z,97017.91
2023-04-02T13:23:47.731Z,97032.91
2023-04-02T13:27:51.124Z,97038.22
2023-04-02T13:31:51.984Z,97024.72
2023-04-02T13:35:52.490Z,97031.78
2023-04-02T13:39:53.058Z,97035.44
2023-04-02T13:43:57.614Z,97045.00
2023-04-02T13:48:01.322Z,97048.84
2023-04-02T13:52:06.422Z,97054.94
2023-04-02T13:56:08.650Z,97059.31
2023-04-02T14:00:13.923Z,97058.06
2023-04-02T14:04:20.085Z,97053.88
2023-04-02T14:08:35.265Z,97067.88
2023-04-02T14:13:05.525Z,97071.91
2023-04-02T14:17:25.699Z,97074.81
2023-04-02T14:21:45.058Z,97078.94
2023-04-02T14:25:57.122Z,97093.94
2023-04-02T14:30:07.745Z,97096.13
2023-04-02T14:34:24.610Z,97093.50
2023-04-02T14:38:37.258Z,97101.78
2023-04-02T14:42:47.470Z,97100.50
2023-04-02T14:46:48.004Z,97097.50
2023-04-02T14:50:56.981Z,97111.56
2023-04-02T14:55:03.539Z,97119.84
2023-04-02T14:59:24.194Z,97124.41
2023-04-02T15:03:28.287Z,97106.19
2023-04-02T15:07:43.407Z,97137.41
2023-04-02T15:11:51.086Z,97140.75
2023-04-02T15:16:12.736Z,97141.31
2023-04-02T15:20:18.905Z,97151.56
2023-04-02T15:24:37.304Z,97155.09
2023-04-02T15:28:45.811Z,97155.75
2023-04-02T15:32:49.326Z,97152.75
2023-04-02T15:37:10.529Z,97158.63
2023-04-02T15:41:26.534Z,97165.09
2023-04-02T15:45:38.166Z,97165.81
2023-04-02T15:49:46.368Z,97168.84
2023-04-02T15:53:59.908Z,97184.41
2023-04-02T15:58:25.046Z,97188.72
2023-04-02T16:02:55.261Z,97185.75
2023-04-02T16:07:21.737Z,97194.28
2023-04-02T16:11:22.788Z,97206.09
2023-04-02T16:15:39.552Z,97209.69
2023-04-02T16:19:50.551Z,97218.09
2023-04-02T16:23:52.689Z,97220.63
2023-04-02T16:28:05.920Z,97227.00
2023-04-02T16:32:23.081Z,97234.75
2023-04-02T16:36:42.090Z,97239.50
2023-04-02T16:41:07.623Z,97227.91
2023-04-02T16:45:29.587Z,97257.97
2023-04-02T16:49:42.901Z,97261.09
2023-04-02T16:54:01.430Z,97267.41
2023-04-02T16:58:23.028Z,97294.41
2023-04-02T17:02:42.474Z,97301.03
2023-04-02T17:07:03.716Z,97304.16
2023-04-02T17:11:09.201Z,97308.91
2023-04-02T17:15:27.856Z,97307.94
2023-04-02T17:19:34.369Z,97321.81
2023-04-02T17:27:58.999Z,97343.25
2023-04-02T17:32:05.471Z,97343.06
2023-04-02T17:36:26.397Z,97353.41
2023-04-02T17:40:39.484Z,97365.09
2023-04-02T17:45:08.257Z,97371.22
2023-04-02T17:49:24.984Z,97382.84
2023-04-02T17:53:43.361Z,97386.69
2023-04-02T17:58:05.398Z,97398.25
2023-04-02T18:02:29.866Z,97405.66
2023-04-02T18:06:42.529Z,97410.72
2023-04-02T18:11:01.892Z,97418.25
2023-04-02T18:15:45.335Z,97438.22
2023-04-02T18:19:56.160Z,97453.59
2023-04-02T18:24:32.693Z,97452.28
2023-04-02T18:28:50.868Z,97456.78
2023-04-02T18:33:24.505Z,97466.41
2023-04-02T18:37:40.334Z,97474.78
2023-04-02T18:41:54.872Z,97481.06
2023-04-02T18:46:05.457Z,97485.19
2023-04-02T18:50:21.045Z,97495.34
2023-04-02T18:54:29.040Z,97494.13
2023-04-02T18:58:42.646Z,97507.94
2023-04-02T19:02:50.344Z,97505.53
2023-04-02T19:07:06.330Z,97513.47
2023-04-02T19:11:14.425Z,97515.28
2023-04-02T19:15:21.709Z,97526.00
2023-04-02T19:19:26.960Z,97523.88
2023-04-02T19:24:03.185Z,97525.91
2023-04-02T19:28:21.671Z,97537.22
2023-04-02T19:32:34.327Z,97545.75
2023-04-02T19:36:50.991Z,97553.88
2023-04-02T19:41:02.576Z,97551.50
2023-04-02T19:45:06.118Z,97548.59
2023-04-02T19:49:13.583Z,97560.81
2023-04-02T19:53:14.527Z,97563.69
2023-04-02T19:57:20.335Z,97569.41
2023-04-02T20:01:22.541Z,97567.97
2023-04-02T20:05:23.176Z,97571.41
2023-04-02T20:09:24.285Z,97567.16
2023-04-02T20:13:27.671Z,97584.81
2023-04-02T20:17:28.546Z,97590.53
2023-04-02T20:21:38.601Z,97589.50
2023-04-02T20:25:40.549Z,97602.31
2023-04-02T20:29:43.928Z,97612.06
2023-04-02T20:33:46.576Z,97617.78
2023-04-02T20:37:48.322Z,97625.88
2023-04-02T20:41:52.104Z,97623.81
2023-04-02T20:46:04.547Z,97637.28
2023-04-02T20:50:05.437Z,97642.75
2023-04-02T20:54:08.666Z,97642.97
2023-04-02T20:58:09.017Z,97645.44
2023-04-02T21:02:14.018Z,97655.16
2023-04-02T21:06:17.748Z,97655.72
2023-04-02T21:10:20.091Z,97654.47
2023-04-02T21:14:20.892Z,97664.56
2023-04-02T21:18:23.862Z,97655.78
2023-04-02T21:22:24.216Z,97670.13
2023-04-02T21:26:28.222Z,97675.47
2023-04-02T21:30:28.549Z,97680.03
2023-04-02T21:34:31.853Z,97683.56
2023-04-02T21:38:32.281Z,97664.25
2023-04-02T21:42:32.918Z,97691.47
2023-04-02T21:46:38.758Z,97680.25
2023-04-02T21:50:42.005Z,97683.16
2023-04-02T21:54:42.464Z,97682.44
2023-04-02T21:58:43.630Z,97684.88
2023-04-02T22:02:44.649Z,97695.03
2023-04-02T22:06:49.666Z,97693.75
2023-04-02T22:10:50.117Z,97677.19
2023-04-02T22:14:50.497Z,97692.09
2023-04-02T22:18:53.102Z,97695.78
2023-04-02T22:22:58.100Z,97693.75
2023-04-02T22:26:58.643Z,97694.31
2023-04-02T22:31:07.641Z,97698.06
2023-04-02T22:35:09.236Z,97695.59
2023-04-02T22:39:15.266Z,97697.28
2023-04-02T22:43:15.752Z,97703.31
2023-04-02T22:47:16.072Z,97697.38
2023-04-02T22:51:20.966Z,97677.69
2023-04-02T22:55:24.328Z,97702.19
2023-04-02T22:59:25.029Z,97699.53
2023-04-02T23:03:25.379Z,97684.28
2023-04-02T23:07:25.852Z,97695.03
2023-04-02T23:11:31.351Z,97690.38
2023-04-02T23:15:32.357Z,97690.63
2023-04-02T23:19:32.786Z,97708.53
2023-04-02T23:23:34.329Z,97708.81
2023-04-02T23:27:38.312Z,97714.78
2023-04-02T23:31:39.245Z,97706.88
2023-04-02T23:35:40.002Z,97716.81
2023-04-02T23:39:41.029Z,97711.28
2023-04-02T23:43:44.489Z,97706.94
2023-04-02T23:47:45.357Z,97700.56
2023-04-02T23:51:45.851Z,97703.63
2023-04-02T23:55:46.217Z,97699.19
2023-04-02T23:59:49.234Z,97713.47
